Time;durP1;ratioP1;P1;durP2;ratioP2;P2;SDS_P1;SDS_P2;PMS_P1;PMS_P2;Temp;Humidity;BMP_temperature;BMP_pressure;BME280_temperature;BME280_humidity;BME280_pressure;Samples;Min_cycle;Max_cycle;Signal;HPM_P1;HPM_P2
2023/07/12 00:12:31;;;;;;;11.40;9.93;;;15.70;99.90;;;;;;4631928;30;20219;-84
2023/07/12 00:42:38;;;;;;;11.57;10.47;;;15.40;99.90;;;;;;4830678;28;20379;-83
2023/07/12 01:07:41;;;;;;;13.50;12.10;;;15.10;99.90;;;;;;4684976;29;20695;-84
2023/07/12 01:33:22;;;;;;;15.33;13.40;;;14.90;99.90;;;;;;4779534;29;20548;-83
2023/07/12 02:39:22;;;;;;;19.00;16.90;;;14.50;99.90;;;;;;4654337;29;20261;-84
2023/07/12 03:09:48;;;;;;;19.97;17.97;;;14.80;99.90;;;;;;4826224;28;20275;-86
2023/07/12 03:34:47;;;;;;;21.83;19.63;;;15.30;99.90;;;;;;4740652;29;20796;-83
2023/07/12 03:50:19;;;;;;;21.57;19.33;;;15.70;99.90;;;;;;4687301;29;20489;-84
2023/07/12 04:15:57;;;;;;;19.33;17.40;;;16.50;99.90;;;;;;4673218;29;20692;-86
2023/07/12 04:40:55;;;;;;;14.60;13.20;;;17.90;99.90;;;;;;4638446;29;20602;-85
2023/07/12 05:01:34;;;;;;;12.93;11.63;;;19.10;99.90;;;;;;4825303;28;20240;-84
2023/07/12 05:31:53;;;;;;;11.50;10.20;;;20.80;91.70;;;;;;4777000;29;20252;-86
2023/07/12 06:01:48;;;;;;;10.63;9.35;;;22.20;89.70;;;;;;4581109;30;20636;-82
2023/07/12 08:29:46;;;;;;;6.70;5.70;;;27.80;57.90;;;;;;4572467;30;21818;-81
2023/07/12 08:33:59;;;;;;;6.30;5.70;;;27.90;57.70;;;;;;4502605;30;20707;-84
2023/07/12 09:30:18;;;;;;;4.60;4.20;;;30.50;49.40;;;;;;4719396;29;20347;-85
2023/07/12 09:55:15;;;;;;;4.80;4.50;;;29.70;49.70;;;;;;4618740;29;20234;-82
2023/07/12 10:21:04;;;;;;;5.75;4.95;;;29.20;49.70;;;;;;4719576;29;20232;-85
2023/07/12 11:37:22;;;;;;;5.15;4.65;;;30.90;47.30;;;;;;4700923;29;20244;-82
2023/07/12 11:57:41;;;;;;;5.60;5.10;;;31.50;47.60;;;;;;4799335;29;20385;-85
2023/07/12 12:37:40;;;;;;;7.00;6.20;;;31.60;47.70;;;;;;4705797;29;21801;-81
2023/07/12 13:03:29;;;;;;;6.28;5.63;;;32.10;48.00;;;;;;4748072;29;20207;-85
2023/07/12 13:28:51;;;;;;;8.90;6.63;;;31.00;48.70;;;;;;4792500;29;20531;-84
2023/07/12 13:48:38;;;;;;;7.40;6.80;;;29.90;49.70;;;;;;4681853;29;20547;-86
2023/07/12 14:09:35;;;;;;;7.85;7.20;;;29.40;50.50;;;;;;4718978;29;20341;-82
2023/07/12 14:29:56;;;;;;;10.48;8.50;;;28.60;53.60;;;;;;4787159;29;20451;-85
2023/07/12 14:34:21;;;;;;;10.20;7.75;;;28.50;53.90;;;;;;4813193;29;20447;-81
2023/07/12 15:24:28;;;;;;;11.10;9.93;;;25.80;90.60;;;;;;6051660;23;20552;-81
2023/07/12 15:44:48;;;;;;;14.15;9.38;;;26.60;86.80;;;;;;5834226;24;20738;-86
2023/07/12 16:04:47;;;;;;;10.82;9.73;;;27.10;82.00;;;;;;5764494;24;20475;-83
2023/07/12 16:25:20;;;;;;;12.20;9.35;;;27.90;77.50;;;;;;5972129;23;20164;-82
2023/07/12 17:05:15;;;;;;;11.85;8.50;;;26.40;78.00;;;;;;5751894;24;20827;-85
2023/07/12 17:26:01;;;;;;;9.95;8.65;;;25.60;82.70;;;;;;5727465;24;20288;-87
2023/07/12 17:51:21;;;;;;;10.23;9.20;;;25.10;85.00;;;;;;5623033;24;20242;-82
2023/07/12 18:21:41;;;;;;;10.35;9.27;;;24.60;87.40;;;;;;5780006;24;20315;-86
2023/07/12 18:42:19;;;;;;;12.63;10.98;;;24.50;88.50;;;;;;5758143;24;20664;-86
2023/07/12 19:32:56;;;;;;;17.70;16.00;;;21.70;99.90;;;;;;5690797;24;20372;-84
2023/07/12 19:58:12;;;;;;;20.37;18.27;;;20.90;99.90;;;;;;5704662;24;20166;-83
2023/07/12 20:28:37;;;;;;;20.83;18.80;;;20.60;99.90;;;;;;5607339;25;20221;-83
2023/07/12 23:41:33;;;;;;;11.47;10.07;;;19.00;99.90;;;;;;5681300;24;20186;-84
